Time;durP1;ratioP1;P1;durP2;ratioP2;P2;SDS_P1;SDS_P2;PMS_P1;PMS_P2;Temp;Humidity;BMP_temperature;BMP_pressure;BME280_temperature;BME280_humidity;BME280_pressure;Samples;Min_cycle;Max_cycle;Signal;HPM_P1;HPM_P2
2022/05/29 00:02:14;;;;;;;2.97;1.27;;;;;;;;;;4991399;28;20208;-81
2022/05/29 00:05:18;;;;;;;4.07;1.80;;;;;;;;;;4990852;28;20169;-80
2022/05/29 00:08:29;;;;;;;4.00;1.70;;;;;;;;;;5018702;28;20204;-80
2022/05/29 00:11:34;;;;;;;4.10;1.60;;;;;;;;;;4990980;28;20225;-80
2022/05/29 00:14:41;;;;;;;3.23;1.40;;;;;;;;;;5002310;28;20208;-80
2022/05/29 00:17:45;;;;;;;5.30;1.77;;;;;;;;;;4990424;28;20197;-80
2022/05/29 00:20:51;;;;;;;6.17;1.80;;;;;;;;;;5001870;28;20217;-80
2022/05/29 00:23:55;;;;;;;7.23;1.60;;;;;;;;;;5004686;28;20189;-80
2022/05/29 00:27:00;;;;;;;2.23;1.77;;;;;;;;;;5021089;28;20185;-80
2022/05/29 00:30:07;;;;;;;3.37;1.50;;;;;;;;;;5010243;28;20185;-80
2022/05/29 00:33:12;;;;;;;2.87;1.60;;;;;;;;;;5021407;28;20659;-80
2022/05/29 00:36:17;;;;;;;2.97;1.37;;;;;;;;;;5021037;28;20659;-80
2022/05/29 00:39:21;;;;;;;2.27;1.57;;;;;;;;;;5023158;28;20651;-80
2022/05/29 00:42:25;;;;;;;3.73;1.43;;;;;;;;;;5021210;28;20238;-81
2022/05/29 00:45:37;;;;;;;3.33;1.30;;;;;;;;;;5010136;28;20173;-80
2022/05/29 00:48:41;;;;;;;3.40;1.80;;;;;;;;;;4998350;28;20193;-80
2022/05/29 00:51:53;;;;;;;3.10;1.80;;;;;;;;;;5009492;28;20683;-80
2022/05/29 00:55:05;;;;;;;3.40;1.70;;;;;;;;;;4990437;28;20201;-80
2022/05/29 00:58:10;;;;;;;1.97;1.67;;;;;;;;;;5004285;28;20204;-81
2022/05/29 01:01:14;;;;;;;5.43;1.60;;;;;;;;;;5033275;28;20216;-80
2022/05/29 01:04:18;;;;;;;3.47;1.60;;;;;;;;;;5009384;28;20532;-80
2022/05/29 01:07:25;;;;;;;1.97;1.50;;;;;;;;;;4998148;28;20185;-79
2022/05/29 01:10:49;;;;;;;5.90;1.80;;;;;;;;;;5021958;28;20196;-80
2022/05/29 01:14:25;;;;;;;4.03;1.93;;;;;;;;;;5013572;28;20200;-80
2022/05/29 01:17:48;;;;;;;4.23;2.00;;;;;;;;;;5025010;28;20196;-80
2022/05/29 01:21:20;;;;;;;2.23;1.80;;;;;;;;;;5002696;28;20679;-80
2022/05/29 01:24:39;;;;;;;3.07;1.90;;;;;;;;;;5002002;28;20667;-80
2022/05/29 01:28:02;;;;;;;7.40;2.40;;;;;;;;;;5024203;28;20189;-80
2022/05/29 01:31:14;;;;;;;2.33;1.80;;;;;;;;;;5013068;28;20212;-79
2022/05/29 01:34:25;;;;;;;3.73;1.87;;;;;;;;;;5012817;28;20204;-81
2022/05/29 01:37:55;;;;;;;4.40;1.90;;;;;;;;;;5023944;28;20197;-80
2022/05/29 01:41:33;;;;;;;3.13;1.90;;;;;;;;;;5004566;28;20213;-80
2022/05/29 01:44:45;;;;;;;3.60;1.90;;;;;;;;;;5000324;28;20189;-80
2022/05/29 01:48:10;;;;;;;7.67;1.80;;;;;;;;;;5023099;28;20181;-80
2022/05/29 01:51:45;;;;;;;2.93;1.87;;;;;;;;;;5023696;28;20224;-81
2022/05/29 01:55:03;;;;;;;2.43;1.73;;;;;;;;;;5012870;28;20217;-80
2022/05/29 01:58:32;;;;;;;2.93;1.90;;;;;;;;;;5001270;28;20204;-80
2022/05/29 02:01:41;;;;;;;4.77;2.40;;;;;;;;;;5024615;28;20261;-80
2022/05/29 02:04:50;;;;;;;4.57;2.40;;;;;;;;;;5012302;28;20548;-81
2022/05/29 02:08:00;;;;;;;3.73;2.17;;;;;;;;;;5023837;28;20188;-81
2022/05/29 02:11:06;;;;;;;3.53;2.43;;;;;;;;;;5012439;28;20691;-80
2022/05/29 02:14:35;;;;;;;7.37;2.30;;;;;;;;;;5011847;28;20197;-80
2022/05/29 02:17:44;;;;;;;5.00;2.20;;;;;;;;;;5012100;28;20192;-80
2022/05/29 02:20:52;;;;;;;2.87;2.10;;;;;;;;;;5000995;28;20224;-80
2022/05/29 02:24:01;;;;;;;3.17;2.07;;;;;;;;;;5012247;28;20177;-80
2022/05/29 02:27:37;;;;;;;3.67;2.30;;;;;;;;;;5023263;28;20189;-80
2022/05/29 02:31:06;;;;;;;4.50;2.23;;;;;;;;;;5012083;28;20212;-80
2022/05/29 02:34:44;;;;;;;6.23;2.70;;;;;;;;;;4992418;28;20204;-81
2022/05/29 02:38:19;;;;;;;4.07;2.23;;;;;;;;;;4992756;28;20542;-80
2022/05/29 02:41:32;;;;;;;4.47;2.50;;;;;;;;;;5019821;28;20224;-81
2022/05/29 02:44:50;;;;;;;3.37;2.50;;;;;;;;;;4980991;28;20185;-80
2022/05/29 02:48:01;;;;;;;6.90;2.60;;;;;;;;;;4981593;28;20185;-80
2022/05/29 02:51:18;;;;;;;4.80;2.43;;;;;;;;;;5005604;28;20220;-80
2022/05/29 02:54:26;;;;;;;5.23;2.47;;;;;;;;;;5022958;28;20205;-80
2022/05/29 02:57:30;;;;;;;5.27;2.70;;;;;;;;;;5011341;28;20208;-80
2022/05/29 03:00:46;;;;;;;3.60;2.40;;;;;;;;;;5000033;28;20587;-80
2022/05/29 03:04:12;;;;;;;2.80;2.40;;;;;;;;;;5000195;28;20181;-80
2022/05/29 03:07:32;;;;;;;4.27;2.50;;;;;;;;;;5022797;28;20197;-80
2022/05/29 03:10:41;;;;;;;6.40;2.20;;;;;;;;;;5022388;28;20224;-80
2022/05/29 03:13:59;;;;;;;2.90;2.00;;;;;;;;;;5010991;28;20204;-80
2022/05/29 03:17:09;;;;;;;3.43;2.30;;;;;;;;;;5022401;28;20200;-80
2022/05/29 03:20:31;;;;;;;3.13;2.03;;;;;;;;;;4999385;28;20193;-80
2022/05/29 03:24:01;;;;;;;5.20;1.80;;;;;;;;;;5011297;28;20189;-80
2022/05/29 03:27:15;;;;;;;2.80;1.87;;;;;;;;;;5011196;28;20176;-80
2022/05/29 03:30:22;;;;;;;2.90;1.63;;;;;;;;;;5010690;28;20197;-81
2022/05/29 03:33:27;;;;;;;3.70;2.00;;;;;;;;;;5010186;28;20189;-80
2022/05/29 03:36:31;;;;;;;4.40;2.20;;;;;;;;;;5010632;28;20204;-80
2022/05/29 03:39:35;;;;;;;2.43;2.10;;;;;;;;;;5010427;28;20205;-81
2022/05/29 03:42:39;;;;;;;5.63;2.00;;;;;;;;;;5010830;28;20560;-80
2022/05/29 03:45:44;;;;;;;3.37;1.93;;;;;;;;;;5021774;28;20181;-80
2022/05/29 03:48:48;;;;;;;3.77;1.63;;;;;;;;;;5010427;28;20196;-80
2022/05/29 03:51:53;;;;;;;4.63;2.10;;;;;;;;;;4998949;28;20220;-81
2022/05/29 03:54:58;;;;;;;4.00;1.70;;;;;;;;;;5010939;28;20541;-80
2022/05/29 03:58:02;;;;;;;3.53;1.77;;;;;;;;;;5009834;28;20212;-80
2022/05/29 04:01:07;;;;;;;2.20;1.50;;;;;;;;;;4998548;28;20217;-80
2022/05/29 04:04:11;;;;;;;3.93;1.53;;;;;;;;;;4999182;28;20184;-80
2022/05/29 04:07:15;;;;;;;4.40;2.00;;;;;;;;;;5010530;28;20508;-80
2022/05/29 04:13:44;;;;;;;2.00;1.60;;;;;;;;;;5001863;28;20189;-80
2022/05/29 04:16:48;;;;;;;5.17;1.70;;;;;;;;;;4990602;28;20201;-80
2022/05/29 04:19:52;;;;;;;2.83;1.80;;;;;;;;;;5005959;28;20193;-80
2022/05/29 04:22:56;;;;;;;2.03;1.40;;;;;;;;;;5009712;28;20197;-80
2022/05/29 04:26:00;;;;;;;2.83;1.73;;;;;;;;;;5009809;28;20184;-80
2022/05/29 04:29:05;;;;;;;2.73;1.60;;;;;;;;;;5021045;28;20192;-79
2022/05/29 04:35:38;;;;;;;2.53;1.47;;;;;;;;;;5008754;28;20208;-80
2022/05/29 04:38:43;;;;;;;4.00;1.43;;;;;;;;;;5010400;28;20189;-80
2022/05/29 04:41:47;;;;;;;4.10;1.33;;;;;;;;;;5009696;28;20651;-80
2022/05/29 04:44:51;;;;;;;2.07;1.20;;;;;;;;;;5010196;28;20180;-80
2022/05/29 04:47:54;;;;;;;2.80;1.43;;;;;;;;;;5025421;28;20180;-81
2022/05/29 04:51:01;;;;;;;3.03;1.43;;;;;;;;;;5002510;28;20224;-80
2022/05/29 04:54:05;;;;;;;2.47;1.37;;;;;;;;;;5013878;28;20173;-80
2022/05/29 04:57:10;;;;;;;4.10;1.40;;;;;;;;;;4993993;28;20684;-80
2022/05/29 05:00:15;;;;;;;3.73;1.40;;;;;;;;;;5024603;28;20181;-80
2022/05/29 05:03:19;;;;;;;5.93;1.60;;;;;;;;;;5025008;28;20173;-80
2022/05/29 05:06:23;;;;;;;2.53;1.63;;;;;;;;;;5025162;28;20169;-80
2022/05/29 05:09:29;;;;;;;3.10;1.57;;;;;;;;;;5013053;28;20193;-80
2022/05/29 05:12:33;;;;;;;4.33;1.77;;;;;;;;;;5013663;28;20224;-80
2022/05/29 05:15:37;;;;;;;3.23;1.83;;;;;;;;;;5037051;28;20212;-80
2022/05/29 05:18:40;;;;;;;3.93;1.80;;;;;;;;;;5013258;28;20185;-80
2022/05/29 05:21:45;;;;;;;4.23;1.63;;;;;;;;;;4993754;28;20225;-79
2022/05/29 05:24:49;;;;;;;3.77;2.07;;;;;;;;;;4994347;28;20174;-78
2022/05/29 05:27:53;;;;;;;2.47;1.87;;;;;;;;;;5006759;28;20178;-78
2022/05/29 05:30:57;;;;;;;3.00;1.77;;;;;;;;;;4998660;28;20220;-78
2022/05/29 05:34:02;;;;;;;2.97;1.90;;;;;;;;;;5013997;28;20188;-78
2022/05/29 05:37:06;;;;;;;3.83;1.90;;;;;;;;;;5014287;28;20189;-78
2022/05/29 05:40:14;;;;;;;4.10;1.67;;;;;;;;;;5025663;28;20193;-78
2022/05/29 05:43:19;;;;;;;2.77;1.70;;;;;;;;;;5037704;28;20192;-78
2022/05/29 05:46:23;;;;;;;4.63;2.00;;;;;;;;;;5024421;28;20197;-79
2022/05/29 05:49:26;;;;;;;2.63;1.60;;;;;;;;;;5025417;28;20177;-79
2022/05/29 05:52:31;;;;;;;3.13;1.70;;;;;;;;;;5020109;28;20209;-79
2022/05/29 05:55:36;;;;;;;2.37;1.77;;;;;;;;;;5005009;28;20205;-80
2022/05/29 05:58:43;;;;;;;4.63;1.80;;;;;;;;;;5027118;23;20237;-83
2022/05/29 06:01:47;;;;;;;4.07;2.17;;;;;;;;;;4970331;28;20195;-83
2022/05/29 06:04:51;;;;;;;6.67;1.70;;;;;;;;;;4970719;28;20195;-83
2022/05/29 06:07:55;;;;;;;1.87;1.57;;;;;;;;;;4964634;28;20218;-83
2022/05/29 06:10:59;;;;;;;2.53;1.40;;;;;;;;;;4958739;29;20180;-82
2022/05/29 06:14:03;;;;;;;2.73;1.70;;;;;;;;;;4960507;28;20199;-82
2022/05/29 06:17:07;;;;;;;3.57;1.60;;;;;;;;;;4959227;28;20214;-84
2022/05/29 06:20:12;;;;;;;2.53;1.37;;;;;;;;;;4986487;28;20202;-83
2022/05/29 06:23:15;;;;;;;5.27;1.80;;;;;;;;;;4970824;28;20207;-83
2022/05/29 06:26:20;;;;;;;4.80;1.50;;;;;;;;;;4973792;28;20653;-84
2022/05/29 06:29:24;;;;;;;2.53;1.60;;;;;;;;;;4981844;28;20194;-84
2022/05/29 06:32:28;;;;;;;4.13;1.60;;;;;;;;;;4957311;28;20202;-83
2022/05/29 06:35:32;;;;;;;2.37;1.50;;;;;;;;;;4964340;28;20222;-84
2022/05/29 06:38:37;;;;;;;3.03;1.80;;;;;;;;;;4964404;28;20226;-84
2022/05/29 06:41:41;;;;;;;1.90;1.50;;;;;;;;;;4975514;28;20207;-84
2022/05/29 06:44:45;;;;;;;2.50;1.37;;;;;;;;;;4951904;28;20199;-83
2022/05/29 06:47:49;;;;;;;1.97;1.47;;;;;;;;;;4964466;28;20218;-83
2022/05/29 06:50:53;;;;;;;6.17;1.30;;;;;;;;;;4964260;28;20664;-86
2022/05/29 06:54:00;;;;;;;3.70;1.40;;;;;;;;;;4963479;28;20194;-83
2022/05/29 06:57:06;;;;;;;4.20;1.50;;;;;;;;;;4963476;28;20195;-84
2022/05/29 07:07:11;;;;;;;4.33;1.73;;;;;;;;;;4959606;28;20226;-84
2022/05/29 07:10:15;;;;;;;2.80;1.60;;;;;;;;;;4967437;28;20191;-83
2022/05/29 07:13:19;;;;;;;3.07;1.33;;;;;;;;;;4944835;28;20199;-82
2022/05/29 07:16:23;;;;;;;3.97;1.40;;;;;;;;;;4957943;28;20231;-83
2022/05/29 07:19:28;;;;;;;5.17;1.50;;;;;;;;;;4959782;28;20195;-83
2022/05/29 07:22:33;;;;;;;3.27;1.20;;;;;;;;;;4944789;29;20183;-83
2022/05/29 07:25:37;;;;;;;2.43;1.47;;;;;;;;;;4955702;29;20199;-84
2022/05/29 07:28:41;;;;;;;3.80;1.47;;;;;;;;;;4962819;28;20709;-83
2022/05/29 07:31:46;;;;;;;4.07;1.23;;;;;;;;;;4944577;29;20184;-83
2022/05/29 07:34:50;;;;;;;5.30;1.40;;;;;;;;;;4977483;28;20180;-83
2022/05/29 07:37:56;;;;;;;2.43;1.40;;;;;;;;;;4972750;28;20562;-83
2022/05/29 07:41:00;;;;;;;4.40;1.70;;;;;;;;;;4934630;28;20624;-83
2022/05/29 07:44:04;;;;;;;2.33;1.40;;;;;;;;;;4957602;28;20195;-83
2022/05/29 07:47:09;;;;;;;5.33;1.30;;;;;;;;;;4966344;28;20215;-83
2022/05/29 07:50:16;;;;;;;2.17;1.20;;;;;;;;;;4944072;29;20637;-83
2022/05/29 07:53:20;;;;;;;4.90;1.77;;;;;;;;;;4944291;29;20650;-83
2022/05/29 07:56:26;;;;;;;3.17;1.03;;;;;;;;;;4959545;28;20215;-84
2022/05/29 07:59:30;;;;;;;5.07;1.10;;;;;;;;;;4966318;28;20176;-84
2022/05/29 08:02:34;;;;;;;1.97;1.17;;;;;;;;;;4977310;28;20623;-84
2022/05/29 08:05:38;;;;;;;3.00;1.40;;;;;;;;;;4965890;28;20179;-84
2022/05/29 08:08:43;;;;;;;4.20;1.07;;;;;;;;;;4954820;28;20223;-84
2022/05/29 08:11:47;;;;;;;3.50;1.20;;;;;;;;;;4973296;28;20191;-83
2022/05/29 08:14:52;;;;;;;2.47;1.20;;;;;;;;;;4974689;28;20186;-83
2022/05/29 08:17:56;;;;;;;3.57;1.10;;;;;;;;;;4964773;28;20215;-82
2022/05/29 08:21:01;;;;;;;3.43;1.30;;;;;;;;;;4955442;28;20538;-83
2022/05/29 08:30:54;;;;;;;2.43;1.10;;;;;;;;;;4983438;28;20195;-83
2022/05/29 08:33:58;;;;;;;4.37;1.40;;;;;;;;;;4984961;28;20646;-83
2022/05/29 08:37:03;;;;;;;2.90;1.40;;;;;;;;;;4934381;29;20564;-83
2022/05/29 08:40:08;;;;;;;2.57;1.37;;;;;;;;;;4954561;29;20183;-83
2022/05/29 08:43:27;;;;;;;5.67;1.50;;;;;;;;;;4943263;29;20183;-84
2022/05/29 08:46:41;;;;;;;2.37;1.10;;;;;;;;;;4947557;29;20192;-82
2022/05/29 08:49:47;;;;;;;3.93;1.43;;;;;;;;;;4954176;29;20184;-82
2022/05/29 08:53:33;;;;;;;2.07;1.27;;;;;;;;;;4953938;28;20661;-80
2022/05/29 08:56:59;;;;;;;4.03;1.30;;;;;;;;;;4922730;29;20212;-83
2022/05/29 09:00:09;;;;;;;6.13;1.50;;;;;;;;;;4936454;28;20537;-82
2022/05/29 09:03:37;;;;;;;5.83;1.53;;;;;;;;;;4961563;28;20199;-83
2022/05/29 09:06:52;;;;;;;1.83;1.20;;;;;;;;;;4984716;28;20187;-81
2022/05/29 09:10:01;;;;;;;2.40;1.10;;;;;;;;;;4973901;28;20191;-82
2022/05/29 09:13:33;;;;;;;2.87;1.17;;;;;;;;;;4984873;28;20191;-82
2022/05/29 09:16:43;;;;;;;3.80;1.27;;;;;;;;;;4984653;28;20211;-82
2022/05/29 09:19:53;;;;;;;2.07;1.20;;;;;;;;;;4962268;28;20187;-82
2022/05/29 09:23:00;;;;;;;2.33;1.20;;;;;;;;;;4973632;28;20187;-82
2022/05/29 09:26:06;;;;;;;2.30;1.10;;;;;;;;;;4973521;28;20626;-83
2022/05/29 09:29:11;;;;;;;2.73;1.27;;;;;;;;;;4962638;28;20219;-82
2022/05/29 09:32:22;;;;;;;4.20;1.43;;;;;;;;;;4975728;28;20175;-82
2022/05/29 09:35:43;;;;;;;2.73;1.30;;;;;;;;;;4965619;28;20179;-83
2022/05/29 09:39:14;;;;;;;4.80;1.70;;;;;;;;;;4954543;28;20222;-83
2022/05/29 09:42:25;;;;;;;3.43;1.13;;;;;;;;;;4954864;28;20178;-83
2022/05/29 09:45:32;;;;;;;3.77;1.40;;;;;;;;;;4976837;28;20195;-83
2022/05/29 09:52:06;;;;;;;4.43;1.43;;;;;;;;;;4965585;28;20183;-83
2022/05/29 09:55:31;;;;;;;2.00;1.30;;;;;;;;;;4987702;28;20187;-82
2022/05/29 09:58:38;;;;;;;8.13;1.80;;;;;;;;;;4965052;28;20234;-83
2022/05/29 10:01:46;;;;;;;4.13;1.37;;;;;;;;;;4976903;28;20485;-83
2022/05/29 10:04:53;;;;;;;2.10;1.10;;;;;;;;;;4954197;28;20637;-82
2022/05/29 10:08:15;;;;;;;2.60;1.10;;;;;;;;;;4965097;28;20206;-83
2022/05/29 10:11:28;;;;;;;2.50;1.03;;;;;;;;;;4976442;28;20634;-83
2022/05/29 10:14:41;;;;;;;2.27;1.07;;;;;;;;;;4976374;28;20531;-83
2022/05/29 10:17:45;;;;;;;2.20;0.90;;;;;;;;;;4976804;28;20226;-83
2022/05/29 10:20:50;;;;;;;2.50;1.10;;;;;;;;;;4976544;28;20179;-83
2022/05/29 10:24:10;;;;;;;3.83;1.00;;;;;;;;;;4964817;28;20198;-83
2022/05/29 10:27:23;;;;;;;1.73;1.00;;;;;;;;;;4976108;28;20219;-83
2022/05/29 10:30:42;;;;;;;3.13;1.10;;;;;;;;;;4976552;28;20662;-83
2022/05/29 10:34:29;;;;;;;2.23;0.90;;;;;;;;;;4987035;28;20666;-83
2022/05/29 10:37:40;;;;;;;1.67;0.80;;;;;;;;;;4980001;28;20252;-83
2022/05/29 10:40:47;;;;;;;2.33;1.07;;;;;;;;;;4964868;28;20189;-83
2022/05/29 10:43:51;;;;;;;3.80;1.10;;;;;;;;;;4963476;28;20201;-83
2022/05/29 10:47:05;;;;;;;1.87;1.10;;;;;;;;;;4964579;28;20180;-83
2022/05/29 10:50:16;;;;;;;3.33;1.00;;;;;;;;;;4964424;28;20176;-83
2022/05/29 10:53:45;;;;;;;2.73;1.10;;;;;;;;;;4975612;28;20180;-83
2022/05/29 10:57:14;;;;;;;2.50;0.97;;;;;;;;;;4986602;28;20675;-82
2022/05/29 11:00:33;;;;;;;3.40;0.93;;;;;;;;;;4964579;28;20182;-82
2022/05/29 11:04:01;;;;;;;3.07;1.10;;;;;;;;;;4975694;28;20188;-83
2022/05/29 11:07:33;;;;;;;1.83;1.05;;;;;;;;;;4975253;28;20179;-83
2022/05/29 11:11:25;;;;;;;3.73;1.00;;;;;;;;;;4975350;28;20180;-83
2022/05/29 11:14:48;;;;;;;3.30;0.93;;;;;;;;;;4990794;28;20200;-82
2022/05/29 11:18:20;;;;;;;2.87;1.00;;;;;;;;;;4964001;28;20709;-82
2022/05/29 11:21:43;;;;;;;8.27;0.90;;;;;;;;;;4975115;28;20190;-83
2022/05/29 11:25:06;;;;;;;4.00;0.90;;;;;;;;;;4952930;28;20182;-83
2022/05/29 11:28:40;;;;;;;2.28;0.90;;;;;;;;;;4974827;28;20213;-83
2022/05/29 11:31:57;;;;;;;6.05;0.90;;;;;;;;;;4975684;28;20180;-83
2022/05/29 11:35:16;;;;;;;3.78;0.80;;;;;;;;;;4975441;28;20187;-83
2022/05/29 11:38:24;;;;;;;2.40;0.80;;;;;;;;;;4952657;28;20210;-83
2022/05/29 11:41:38;;;;;;;2.15;0.90;;;;;;;;;;4963887;28;20517;-82
2022/05/29 11:45:01;;;;;;;4.23;0.93;;;;;;;;;;4985768;28;20185;-82
2022/05/29 11:51:38;;;;;;;2.43;0.80;;;;;;;;;;4963580;28;20618;-82
2022/05/29 11:54:52;;;;;;;2.43;0.93;;;;;;;;;;4974378;28;20189;-83
2022/05/29 11:58:06;;;;;;;2.03;1.00;;;;;;;;;;4974444;28;20237;-82
2022/05/29 12:01:15;;;;;;;3.17;1.30;;;;;;;;;;4952419;28;20190;-82
2022/05/29 12:04:39;;;;;;;2.03;0.90;;;;;;;;;;4985355;28;20179;-82
2022/05/29 12:07:54;;;;;;;3.43;1.20;;;;;;;;;;4985644;28;20215;-82
2022/05/29 12:11:05;;;;;;;1.47;0.90;;;;;;;;;;4974390;28;20191;-82
2022/05/29 12:14:32;;;;;;;1.80;0.87;;;;;;;;;;4973889;28;20200;-82
2022/05/29 12:17:44;;;;;;;2.57;0.97;;;;;;;;;;4963332;28;20231;-82
2022/05/29 12:20:53;;;;;;;3.27;0.87;;;;;;;;;;4974513;28;20189;-82
2022/05/29 12:24:00;;;;;;;1.67;0.70;;;;;;;;;;4985534;28;20631;-81
2022/05/29 12:27:07;;;;;;;3.00;0.97;;;;;;;;;;4985006;28;20196;-83
2022/05/29 12:30:37;;;;;;;1.67;0.90;;;;;;;;;;4974404;28;20183;-82
2022/05/29 12:33:44;;;;;;;1.20;0.90;;;;;;;;;;4973990;28;20187;-82
2022/05/29 12:37:49;;;;;;;2.17;0.93;;;;;;;;;;4974126;28;20661;-81
2022/05/29 12:41:19;;;;;;;1.57;0.80;;;;;;;;;;4961785;28;20187;-83
2022/05/29 12:44:43;;;;;;;1.80;0.93;;;;;;;;;;4973012;28;20203;-82
2022/05/29 12:47:56;;;;;;;1.40;0.80;;;;;;;;;;4984802;28;20219;-82
2022/05/29 12:51:20;;;;;;;1.70;0.90;;;;;;;;;;4951852;28;20540;-81
2022/05/29 12:54:56;;;;;;;2.13;0.80;;;;;;;;;;4985024;28;20183;-82
2022/05/29 12:58:11;;;;;;;1.83;0.80;;;;;;;;;;4967481;28;20710;-82
2022/05/29 13:01:48;;;;;;;2.67;1.10;;;;;;;;;;4962786;28;20183;-82
2022/05/29 13:05:13;;;;;;;2.23;1.07;;;;;;;;;;4973529;28;20186;-83
2022/05/29 13:08:35;;;;;;;1.37;0.73;;;;;;;;;;4966398;28;20218;-82
2022/05/29 13:11:51;;;;;;;2.23;0.90;;;;;;;;;;4955430;28;20630;-82
2022/05/29 13:14:59;;;;;;;2.43;1.00;;;;;;;;;;4966036;28;20190;-82
2022/05/29 13:18:11;;;;;;;1.40;0.80;;;;;;;;;;4977108;28;20234;-81
2022/05/29 13:21:20;;;;;;;4.10;1.13;;;;;;;;;;4955354;28;20183;-81
2022/05/29 13:24:30;;;;;;;1.47;0.87;;;;;;;;;;4988145;28;20199;-81
2022/05/29 13:27:34;;;;;;;1.40;1.00;;;;;;;;;;4988224;28;20218;-81
2022/05/29 13:31:12;;;;;;;2.77;1.00;;;;;;;;;;4977220;28;20175;-81
2022/05/29 13:34:28;;;;;;;1.97;1.13;;;;;;;;;;4977056;28;20179;-81
2022/05/29 13:37:32;;;;;;;2.17;1.10;;;;;;;;;;4976946;28;20235;-81
2022/05/29 13:40:41;;;;;;;4.10;1.23;;;;;;;;;;4976719;28;20202;-81
2022/05/29 13:43:46;;;;;;;2.13;1.03;;;;;;;;;;4965799;28;20191;-81
2022/05/29 13:47:19;;;;;;;2.03;0.90;;;;;;;;;;4976526;28;20179;-81
2022/05/29 13:50:32;;;;;;;3.47;1.07;;;;;;;;;;4954451;28;20175;-81
2022/05/29 13:53:57;;;;;;;3.23;1.07;;;;;;;;;;4987915;28;20183;-81
2022/05/29 13:57:08;;;;;;;2.97;1.10;;;;;;;;;;4965385;28;20215;-80
2022/05/29 14:03:59;;;;;;;2.70;0.97;;;;;;;;;;4987763;28;20183;-81
2022/05/29 14:07:15;;;;;;;8.23;1.13;;;;;;;;;;4987673;28;20182;-81
2022/05/29 14:10:19;;;;;;;1.97;1.20;;;;;;;;;;4954316;28;20183;-81
2022/05/29 14:13:46;;;;;;;3.17;1.30;;;;;;;;;;4965228;28;20198;-81
2022/05/29 14:16:52;;;;;;;2.20;1.13;;;;;;;;;;4987263;28;20187;-81
2022/05/29 14:20:08;;;;;;;3.17;1.00;;;;;;;;;;4986885;28;20183;-81
2022/05/29 14:23:34;;;;;;;1.23;1.13;;;;;;;;;;4977345;28;20187;-81
2022/05/29 14:26:59;;;;;;;2.10;1.03;;;;;;;;;;4965003;28;20187;-81
2022/05/29 14:30:20;;;;;;;1.50;1.00;;;;;;;;;;4970576;28;20511;-80
2022/05/29 14:33:46;;;;;;;2.70;1.00;;;;;;;;;;4964982;28;20191;-81
2022/05/29 14:36:56;;;;;;;2.47;1.30;;;;;;;;;;4975786;28;20627;-81
2022/05/29 14:40:24;;;;;;;3.30;1.40;;;;;;;;;;4976156;28;20187;-81
2022/05/29 14:43:31;;;;;;;1.77;1.50;;;;;;;;;;4986763;28;20182;-81
2022/05/29 14:50:00;;;;;;;2.77;1.53;;;;;;;;;;4964370;28;20634;-81
2022/05/29 14:53:22;;;;;;;3.87;1.80;;;;;;;;;;4964655;28;20571;-82
2022/05/29 14:56:39;;;;;;;3.60;1.63;;;;;;;;;;4975641;28;20187;-82
2022/05/29 14:59:44;;;;;;;3.37;1.60;;;;;;;;;;4975524;28;20184;-82
2022/05/29 15:02:48;;;;;;;3.73;1.50;;;;;;;;;;4975598;28;20590;-83
2022/05/29 15:06:01;;;;;;;2.83;1.60;;;;;;;;;;4964343;28;20519;-82
2022/05/29 15:12:35;;;;;;;3.23;1.10;;;;;;;;;;4975112;28;20642;-82
2022/05/29 15:15:49;;;;;;;0.90;0.90;;;;;;;;;;4976381;28;20618;-83
2022/05/29 15:18:54;;;;;;;1.43;0.90;;;;;;;;;;4963881;28;20230;-82
2022/05/29 15:25:22;;;;;;;0.80;0.70;;;;;;;;;;4986269;28;20191;-82
2022/05/29 15:28:29;;;;;;;1.70;0.90;;;;;;;;;;4952622;28;20219;-82
2022/05/29 15:31:35;;;;;;;0.93;0.83;;;;;;;;;;4975033;28;20175;-82
2022/05/29 15:35:06;;;;;;;1.20;1.00;;;;;;;;;;4974710;28;20187;-82
2022/05/29 15:38:43;;;;;;;2.70;1.30;;;;;;;;;;4985694;28;20693;-82
2022/05/29 15:42:04;;;;;;;1.97;1.00;;;;;;;;;;4974551;28;20182;-82
2022/05/29 15:45:18;;;;;;;2.50;1.07;;;;;;;;;;4963304;28;20183;-82
2022/05/29 15:48:43;;;;;;;5.23;1.20;;;;;;;;;;4974268;28;20214;-82
2022/05/29 15:52:14;;;;;;;4.77;0.90;;;;;;;;;;4952425;28;20183;-82
2022/05/29 15:55:40;;;;;;;0.63;0.60;;;;;;;;;;4963423;28;20186;-82
2022/05/29 15:58:43;;;;;;;3.73;0.80;;;;;;;;;;4973981;28;20230;-82
2022/05/29 16:02:02;;;;;;;1.97;1.00;;;;;;;;;;4952354;28;20183;-82
2022/05/29 16:05:27;;;;;;;1.53;1.00;;;;;;;;;;4963080;28;20183;-82
2022/05/29 16:08:37;;;;;;;2.37;1.10;;;;;;;;;;4963042;28;20214;-82
2022/05/29 16:11:44;;;;;;;3.93;1.00;;;;;;;;;;4985430;28;20191;-82
2022/05/29 16:14:51;;;;;;;1.17;0.90;;;;;;;;;;4973907;28;20195;-82
2022/05/29 16:18:04;;;;;;;3.67;1.20;;;;;;;;;;4984888;28;20230;-82
2022/05/29 16:21:26;;;;;;;3.63;1.27;;;;;;;;;;4974724;28;20519;-82
2022/05/29 16:24:40;;;;;;;2.20;1.13;;;;;;;;;;4974108;28;20630;-82
2022/05/29 16:27:53;;;;;;;1.83;1.00;;;;;;;;;;4984832;28;20207;-82
2022/05/29 16:31:08;;;;;;;3.70;1.00;;;;;;;;;;4951981;28;20187;-82
2022/05/29 16:34:30;;;;;;;1.33;0.80;;;;;;;;;;4962856;28;20183;-82
2022/05/29 16:48:43;;;;;;;1.10;0.80;;;;;;;;;;4985117;28;20215;-82
2022/05/29 16:51:55;;;;;;;1.33;0.90;;;;;;;;;;4974123;28;20191;-82
2022/05/29 16:55:05;;;;;;;1.10;0.80;;;;;;;;;;4962705;28;20183;-82
2022/05/29 16:58:20;;;;;;;2.70;1.03;;;;;;;;;;4962423;28;20226;-82
2022/05/29 17:01:38;;;;;;;1.00;0.90;;;;;;;;;;4973568;28;20203;-82
2022/05/29 17:05:07;;;;;;;1.60;1.20;;;;;;;;;;4973441;28;20191;-82
2022/05/29 17:08:19;;;;;;;2.23;1.07;;;;;;;;;;4984740;28;20222;-82
2022/05/29 17:11:24;;;;;;;1.90;1.03;;;;;;;;;;4973372;28;20195;-82
2022/05/29 17:14:29;;;;;;;4.70;1.00;;;;;;;;;;4962206;28;20179;-82
2022/05/29 17:17:33;;;;;;;1.33;0.80;;;;;;;;;;4959130;28;20214;-84
2022/05/29 17:20:46;;;;;;;1.20;1.00;;;;;;;;;;4951940;28;20199;-88
2022/05/29 17:24:00;;;;;;;2.40;1.17;;;;;;;;;;4960230;28;20195;-85
2022/05/29 17:27:22;;;;;;;1.50;1.03;;;;;;;;;;4943371;28;20207;-84
2022/05/29 17:30:37;;;;;;;1.90;1.00;;;;;;;;;;4943005;29;20184;-84
2022/05/29 17:33:47;;;;;;;1.93;0.93;;;;;;;;;;4957190;28;20512;-86
2022/05/29 17:37:10;;;;;;;3.53;2.00;;;;;;;;;;4945812;28;20204;-84
2022/05/29 17:40:23;;;;;;;19.27;8.13;;;;;;;;;;4954154;29;20513;-83
2022/05/29 17:43:27;;;;;;;22.03;9.43;;;;;;;;;;4944786;28;20191;-82
2022/05/29 17:46:44;;;;;;;2.93;1.73;;;;;;;;;;4973429;28;20194;-83
2022/05/29 17:50:07;;;;;;;4.70;1.50;;;;;;;;;;4969847;28;20187;-85
2022/05/29 17:53:30;;;;;;;3.37;2.63;;;;;;;;;;4962683;28;20187;-83
2022/05/29 17:56:35;;;;;;;1.70;1.40;;;;;;;;;;4971703;28;20192;-82
2022/05/29 17:59:39;;;;;;;1.40;1.30;;;;;;;;;;4957506;28;20682;-84
2022/05/29 18:02:46;;;;;;;1.70;1.30;;;;;;;;;;4962066;28;20559;-83
2022/05/29 18:05:50;;;;;;;6.77;3.77;;;;;;;;;;4957146;29;20183;-84
2022/05/29 18:08:54;;;;;;;6.23;2.40;;;;;;;;;;4973719;28;20690;-83
2022/05/29 18:11:59;;;;;;;5.67;3.70;;;;;;;;;;4965320;28;20187;-84
2022/05/29 18:15:06;;;;;;;4.47;3.50;;;;;;;;;;4976543;28;20187;-84
2022/05/29 18:18:10;;;;;;;5.60;2.57;;;;;;;;;;4945862;28;20223;-84
2022/05/29 18:21:15;;;;;;;3.03;2.03;;;;;;;;;;4956903;29;20191;-84
2022/05/29 18:24:19;;;;;;;3.30;2.50;;;;;;;;;;4934898;29;20184;-84
2022/05/29 18:27:23;;;;;;;6.40;4.07;;;;;;;;;;4963670;28;20222;-83
2022/05/29 18:30:27;;;;;;;3.70;2.57;;;;;;;;;;4958086;28;20662;-84
2022/05/29 18:33:33;;;;;;;3.23;2.10;;;;;;;;;;4934958;28;20180;-84
2022/05/29 18:36:37;;;;;;;7.43;4.80;;;;;;;;;;4980931;28;20198;-84
2022/05/29 18:39:41;;;;;;;5.67;2.87;;;;;;;;;;4952857;28;20222;-84
2022/05/29 18:42:48;;;;;;;4.07;1.80;;;;;;;;;;4975523;28;20198;-84
2022/05/29 18:45:52;;;;;;;3.13;1.87;;;;;;;;;;4952102;28;20199;-84
2022/05/29 18:48:57;;;;;;;5.63;3.60;;;;;;;;;;4964348;28;20218;-84
2022/05/29 18:52:02;;;;;;;3.43;1.60;;;;;;;;;;4975651;28;20183;-84
2022/05/29 18:55:06;;;;;;;2.87;1.50;;;;;;;;;;4975758;28;20194;-84
2022/05/29 18:58:10;;;;;;;1.50;1.40;;;;;;;;;;4967841;28;20705;-84
2022/05/29 19:01:18;;;;;;;1.57;1.40;;;;;;;;;;4956032;29;20207;-84
2022/05/29 19:04:23;;;;;;;2.67;1.33;;;;;;;;;;4955226;28;20179;-84
2022/05/29 19:07:27;;;;;;;1.90;1.70;;;;;;;;;;4967440;28;20231;-84
2022/05/29 19:10:34;;;;;;;3.00;1.57;;;;;;;;;;4945284;29;20179;-84
2022/05/29 19:13:38;;;;;;;1.80;1.47;;;;;;;;;;4956715;28;20187;-84
2022/05/29 19:16:43;;;;;;;1.90;1.50;;;;;;;;;;4975251;28;20202;-84
2022/05/29 19:19:46;;;;;;;1.87;1.70;;;;;;;;;;4963696;28;20231;-84
2022/05/29 19:22:52;;;;;;;2.07;1.43;;;;;;;;;;4964166;28;20183;-85
2022/05/29 19:26:02;;;;;;;2.47;1.77;;;;;;;;;;4952226;28;20194;-85
2022/05/29 19:29:06;;;;;;;2.17;1.97;;;;;;;;;;4939200;29;20216;-84
2022/05/29 19:32:12;;;;;;;3.93;1.70;;;;;;;;;;4968508;28;20187;-85
2022/05/29 19:35:16;;;;;;;2.30;1.70;;;;;;;;;;4955248;28;20314;-85
2022/05/29 19:38:21;;;;;;;1.97;1.70;;;;;;;;;;4944434;29;20219;-84
2022/05/29 19:41:31;;;;;;;1.97;1.60;;;;;;;;;;4956444;28;20187;-84
2022/05/29 19:44:38;;;;;;;2.10;1.90;;;;;;;;;;4955370;28;20191;-84
2022/05/29 19:47:42;;;;;;;1.67;1.37;;;;;;;;;;4960464;28;20222;-85
2022/05/29 19:50:46;;;;;;;2.47;1.60;;;;;;;;;;4954217;29;20666;-84
2022/05/29 19:53:50;;;;;;;2.53;1.70;;;;;;;;;;4944696;29;20199;-84
2022/05/29 19:56:54;;;;;;;3.97;1.80;;;;;;;;;;4955192;28;20180;-83
2022/05/29 19:59:58;;;;;;;1.93;1.80;;;;;;;;;;4956141;28;20575;-84
2022/05/29 20:03:02;;;;;;;2.40;2.00;;;;;;;;;;4954415;28;20182;-84